KMSY/MSY METAR and TAF weather

Enter ICAO airport designator
Station Type Date Time Source
KMSY METAR 2021/10/22 17:53 UTC NOAA

KMSY 221753Z 02005KT 10SM FEW028 28/21 A3007 RMK AO2 SLP185 T02780206 10283 20233 58010


Station Type Date Time Source
KMSY Decoded METAR 2021/10/22 17:53 UTC NOAA

NEW ORLEANS INTERNATIONAL AIRPORT, LA, United States (KMSY) 30-00N 90-15W 5M
Oct 22, 2021 - 01:53 PM EDT / 2021.10.22 1753 UTC
Wind: from the NNE (020 degrees) at 6 MPH (5 KT):0
Visibility: 10 mile(s):0
Sky conditions: mostly clear
Temperature: 82.0 F (27.8 C)
Dew Point: 69.1 F (20.6 C)
Relative Humidity: 64%
Pressure (altimeter): 30.07 in. Hg (1018 hPa)
Pressure tendency: 0.03 inches (1.0 hPa) lower than three hours ago
ob: KMSY 221753Z 02005KT 10SM FEW028 28/21 A3007 RMK AO2 SLP185 T02780206 10283 20233 58010
cycle: 18

Station Type Date Time Source
KMSY TAF 2021/10/22 18:42 UTC NOAA

TAF KMSY 221741Z 2218/2324 07005KT P6SM FEW030
FM230000 11005KT P6SM FEW035
FM231100 VRB03KT 3SM BR BKN003
FM231400 12006KT P6SM FEW025 SCT250

Example: see airport list